Jorge Sánchez

Chief Scout - Alavés
20 Nov 2027
Saturday
Process

Personality

Adaptability (4) Ambition (14) Controversy (17) Loyalty (2) Pressure (8) Professionalism (4) Sportsmanship (18) Temperament (10)

Profile

Coaching Style Democratic
License Continental Pro
Determination 4
Man Management 7
Motivating 12
Discipline 7
Job Satisfaction
100%
Fatigue
0%
Role Chief Scout
Wage 72.6K p/w
Contract 14.03.2029

Performance

Behaviour Good
Training Effectiveness
32%
Player Development
25%
Injury Prevention
25%
Tactical Implementation
55%

Recent Events

Attended a recruitment meeting now
Attended a recruitment meeting now
Attended a recruitment meeting now
Attended a recruitment meeting now
Assessed a player 7d ago
Observed a match 7d ago
Observed a match 7d ago
Assessed a player 7d ago

Currently Monitoring

161
Player Club Status Ability Confidence Watched Last Observed Latest Vote
Celías Ingenthron Platense Active 103 / 127 40% 5 18.11.2027 -
Juan Morán Godoy Cruz Active 111 / 111 40% 2 18.11.2027 -
Agustín Obregón River Plate Active 122 / 128 40% 2 16.11.2027 -
Martín Jiménez Audax Italiano Active 89 / 108 40% 1 16.11.2027 -
Juan Manuel Villalba Boca Juniors Active 132 / 119 40% 4 14.11.2027 -
Octavio Ontivero Lanús Active 112 / 115 40% 2 11.11.2027 -
Lautaro Dufur Rentistas Active 114 / 110 40% 1 11.11.2027 -
Juan Giménez Rosario Central Active 106 / 119 40% 2 09.11.2027 -
Dylan Gorosito Boca Juniors Active 99 / 125 40% 1 09.11.2027 -
Agustín Gálvez Atlético Tucumán Active 88 / 103 40% 2 08.11.2027 -
Axel Tape Bayer Leverkusen Active 121 / 144 40% 1 08.11.2027 -
Agustín Medina Lanús Active 122 / 123 40% 5 07.11.2027 -
Agustín De la Cuesta Argentinos Juniors Active 122 / 114 40% 1 05.11.2027 -
Sebastián Ramírez America de Cali Active 115 / 106 40% 2 04.11.2027 -
Leny Yoro Monaco Active 160 / 153 40% 1 04.11.2027 -
Felipe Obradovich Gimnasia La Plata Active 99 / 115 40% 1 02.11.2027 -
Alejo Fernández Temperley Active 102 / 99 40% 2 31.10.2027 -
Mateo Caballero Defensor Sporting Active 101 / 114 40% 1 31.10.2027 -
Diego Cheuquepal Racing Active 111 / 110 40% 2 30.10.2027 -
Aiden Hezarkhani Real Salt Lake Active 74 / 87 40% 1 28.10.2027 -
Ramiro Soperez Defensa y Justicia Active 101 / 109 40% 1 26.10.2027 -
Facundo Balatti Penarol Active 104 / 111 40% 1 26.10.2027 -
Lautaro Quiroga Defensa y Justicia Active 90 / 104 40% 2 25.10.2027 -
Santiago Espíndola River Plate Active 91 / 109 40% 1 25.10.2027 -
Lucas Barrientos Los Andes Active 104 / 104 40% 1 21.10.2027 -
Mirko Bruno Vélez Active 90 / 107 40% 1 18.10.2027 -
Valente Pierani Boca Juniors Active 118 / 131 40% 1 18.10.2027 -
Joel Ezra Enyimba Active 73 / 84 40% 1 15.10.2027 -
Toni Tamarit Alverca Active 110 / 134 40% 5 13.10.2027 -
Lucio Ferrari Talleres Active 84 / 109 40% 1 13.10.2027 -
Ulises Giménez River Plate Active 113 / 122 40% 1 12.10.2027 -
Nazareno Roselli Defensa y Justicia Active 111 / 123 40% 1 06.10.2027 -
Teo Rodríguez Pagano San Lorenzo Active 109 / 134 40% 1 04.10.2027 -
Valentino Massi Sarmiento Active 94 / 99 40% 1 04.10.2027 -
Paulo Gazzaniga Girona Lost 153 / 129 40% 1 02.08.2027 -
Emiliano González Almagro Lost 132 / 119 40% 1 02.08.2027 -
Juan Pérez Huesca Active 126 / 113 44% 1 05.07.2027 -
Jeremías Merlo AC Milan Active 114 / 121 40% 2 04.06.2027 -
Olívio Tomé Benfica Active 123 / 115 40% 3 04.06.2027 -
Martin Cedidla Torino Negotiating 131 / 132 89% 1 01.06.2027 -
Othmane Maamma Watford Active 134 / 137 40% 1 01.06.2027 -
Nacer Mignolet KV Oostende Active 132 / 130 40% 2 31.05.2027 -
Senny Mayulu Paris Saint-Germain Active 156 / 141 40% 1 31.05.2027 -
Manu Rodríguez Gijón Active 113 / 117 40% 2 30.05.2027 -
Christos Mouzakitis Hull City Active 127 / 135 40% 1 30.05.2027 -
Sam Curtis Swindon Town Active 104 / 101 40% 1 25.05.2027 -
Joel Canchimbo Atletico Nacional Active 112 / 124 40% 1 25.05.2027 -
Caleb Yirenkyi Coventry City Active 148 / 134 40% 2 23.05.2027 -
Yussif Saidu Zaragoza Active 127 / 130 40% 4 21.05.2027 -
Facundo Gulli San Lorenzo Active 131 / 134 40% 2 19.05.2027 -
Bazoumana Touré Newcastle United Active 140 / 136 40% 2 19.05.2027 -
Lander Astiazarán Real Sociedad Active 114 / 108 40% 3 17.05.2027 -
Valentino Acuña Newell's Old Boys Active 99 / 109 40% 1 17.05.2027 -
Ethan Mbappé LOSC Lille Active 143 / 131 40% 5 15.05.2027 -
Daniel Awuni Aduana Stars Active 103 / 97 40% 2 14.05.2027 -
Saïd El Mala Köln Active 144 / 148 40% 2 13.05.2027 -
David Mella Deportivo La Coruña Active 141 / 140 40% 4 12.05.2027 -
Mamadou Diakhon Club Brugge Active 131 / 124 40% 2 11.05.2027 -
William Gomes Porto Active 131 / 147 40% 3 11.05.2027 -
Gorka Gorosabel Real Sociedad Active 113 / 108 67% 6 06.05.2027 -
Paulo Iago Sporting CP Active 81 / 94 40% 4 04.05.2027 -
Gianluca Prestianni Benfica Active 128 / 137 40% 5 02.05.2027 -
Chemsdine Talbi Sunderland Active 156 / 138 40% 7 01.05.2027 -
Dilan Godoy Vélez Active 100 / 114 40% 2 30.04.2027 -
Riley Owen Wycombe Wanderers Active 95 / 99 40% 1 30.04.2027 -
Oscar Schwartau Norwich City Active 122 / 124 40% 1 29.04.2027 -
Monty Batlhabane Polokwane City Active 88 / 103 40% 2 25.04.2027 -
Jofre Torrents Ajax Active 119 / 130 40% 3 25.04.2027 -
Oumar Camara Vitoria Guimaraes Active 107 / 132 40% 3 23.04.2027 -
Jan Virgili Club Brugge Active 145 / 133 40% 4 22.04.2027 -
Bradley Zwane SuperSport United Active 115 / 124 40% 1 20.04.2027 -
Mathys Tel Stade Rennais Active 139 / 152 40% 3 10.04.2027 -
João Teixeira Porto Active 117 / 124 40% 1 10.04.2027 -
Thomas Jørgensen Toulouse FC Active 136 / 128 40% 1 08.04.2027 -
Jack Hinshelwood Brighton Active 148 / 151 40% 1 28.03.2027 -
Diego Gaitán Maipú Active 112 / 107 40% 1 25.03.2027 -
Shea Lacey Millwall Active 126 / 137 40% 2 17.03.2027 -
Giovanni Cantizano Rosario Central Active 109 / 116 40% 1 16.03.2027 -
Nico O'Reilly Manchester City Active 156 / 148 40% 2 13.03.2027 -
Malick Fofana Sunderland Active 134 / 157 40% 2 11.03.2027 -
Dehmaine Tabibou FC Nantes Active 117 / 127 40% 1 09.03.2027 -
Antoni Milambo Brentford Active 143 / 143 40% 2 07.03.2027 -
Héctor Fort Real Sociedad Active 142 / 143 40% 2 25.02.2027 -
Edvin Austbø West Ham United Active 140 / 135 40% 1 17.02.2027 -
Mfundo Vilakazi Kaizer Chiefs Active 98 / 105 40% 1 15.02.2027 -
Hugo Guillamón Gijón Active 120 / 136 40% 1 02.02.2027 -
Lluís Albacete Active 121 / 114 44% 1 07.01.2027 -
Adnan Carrasco FC Nantes Negotiating 151 / 156 64% 1 01.01.2027 -
Adrian Dragusin CFR Cluj Negotiating 141 / 142 63% 1 01.01.2027 -
Pau Víctor Estrela da Amadora Active 126 / 137 40% 6 31.12.2026 Monitor
Karim Adeyemi Barcelona Active 149 / 157 40% 1 31.12.2026 -
Iván Romero Levante Active 122 / 147 40% 1 30.12.2026 -
Mateo Pellegrino Fiorentina Active 140 / 145 40% 1 27.12.2026 -
Carlos Álvarez Club America Active 135 / 152 40% 5 26.12.2026 Monitor
Andrés Martín Racing Santander Active 137 / 135 40% 2 26.12.2026 -
Ramiro Ruiz Rodríguez Atlético Tucumán Active 132 / 123 40% 3 24.12.2026 -
Juanlu Bournemouth Active 147 / 157 40% 1 24.12.2026 -
Pol Lozano Espanyol Active 132 / 146 40% 1 24.12.2026 -
Jonathan Dubasin Osasuna Active 135 / 151 40% 1 24.12.2026 -
Nicolás Cordero Aldosivi Active 115 / 123 40% 2 23.12.2026 -
Alan Velasco Boca Juniors Active 126 / 135 40% 5 22.12.2026 -
Rafael Leão Galatasaray Active 162 / 161 40% 1 21.12.2026 -
Ezequiel Almirón Estudiantes Active 123 / 106 40% 2 15.12.2026 -
Gastón Verón Argentinos Juniors Active 127 / 114 40% 3 13.12.2026 -
Mauro Molina Estudiantes Active 110 / 106 40% 1 12.12.2026 -
Tyrhys Dolan Espanyol Active 153 / 128 40% 2 11.12.2026 -
Alan Lescano Argentinos Juniors Active 140 / 126 40% 1 11.12.2026 -
Matías Giménez Rojas Argentinos Juniors Active 134 / 111 40% 3 08.12.2026 -
Gonzalo Fulham Active 150 / 153 40% 2 08.12.2026 -
Juan Rocca Gimnasia y Tiro Active 113 / 115 40% 3 07.12.2026 -
Carlos Romero Villarreal Active 154 / 140 40% 1 06.12.2026 -
Sebastián Cocimano Nueva Chicago Active 117 / 116 40% 1 06.12.2026 -
Favio Cabral Mitre Active 123 / 121 40% 6 05.12.2026 -
Igor Jesus Nottingham Forest Active 153 / 138 40% 1 05.12.2026 -
Roberto Fernández Braga Active 128 / 142 40% 3 04.12.2026 -
Yeremy Pino Crystal Palace Active 158 / 157 40% 1 04.12.2026 -
Enzo Loiodice KAA Gent Active 136 / 129 40% 1 01.12.2026 Needs More Info
Alexis Cuello San Lorenzo Active 127 / 119 40% 4 29.11.2026 -
Agustín Ruberto River Plate Active 120 / 117 40% 3 29.11.2026 -
Brahim Díaz Real Madrid Active 150 / 138 40% 1 28.11.2026 -
Eugenio Olivera Talleres Active 102 / 97 40% 2 25.11.2026 -
Enzo González Defensores Active 110 / 112 40% 4 23.11.2026 -
Aarón Molinas Defensa y Justicia Active 135 / 124 40% 2 23.11.2026 -
Facundo González River Plate Active 88 / 101 40% 1 23.11.2026 -
Samuel Lucero Defensa y Justicia Active 113 / 110 40% 1 23.11.2026 -
Juan Cruz Zurbriggen San Telmo Active 87 / 98 40% 1 21.11.2026 -
Agustín Alvez San Lorenzo Active 92 / 106 40% 1 20.11.2026 -
Thiago Acosta River Plate Active 113 / 107 40% 1 20.11.2026 -
Santiago Montiel Independiente Active 128 / 122 40% 1 17.11.2026 -
Marco Miori Alvarado Active 107 / 108 40% 1 17.11.2026 -
Jorge Pascual Granada Active 121 / 143 40% 1 16.11.2026 -
Fabrizio Sartori Independiente Rivadavia Active 110 / 128 40% 3 14.11.2026 -
Franco Ibarra Rosario Central Active 119 / 120 40% 1 14.11.2026 -
Fabricio Rojas Gimnasia y Tiro Active 118 / 110 40% 2 13.11.2026 -
Dušan Vlahović Betis Active 145 / 161 40% 1 13.11.2026 -
Tomás Galván River Plate Active 129 / 122 40% 1 12.11.2026 -
Joaquín García Vélez Active 134 / 126 40% 1 12.11.2026 -
Ez Abde Betis Active 159 / 159 40% 2 09.11.2026 -
Franco Ayunta Temperley Active 115 / 118 40% 1 08.11.2026 -
Tiziano Dornell Almagro Active 106 / 115 40% 1 08.11.2026 -
Alexander Díaz Deportivo Riestra Active 110 / 123 40% 2 05.11.2026 -
Thiago Almada Fiorentina Active 132 / 148 40% 1 02.11.2026 -
Franco Fagúndez Estudiantes Active 106 / 115 40% 2 30.10.2026 -
Nicolás Molina Temperley Active 120 / 107 40% 1 30.10.2026 -
Marcos Machado Mitre Active 110 / 105 40% 1 28.10.2026 -
Diego García Malmo FF Active 101 / 126 40% 1 23.10.2026 -
Renzo Reynaga Patronato Active 109 / 112 40% 1 23.10.2026 -
Fabricio Oviedo Rosario Central Active 111 / 103 40% 1 22.10.2026 -
Aaron Spetale Quilmes Active 103 / 118 40% 1 22.10.2026 -
Matías Salerno San Telmo Active 112 / 106 40% 1 17.10.2026 -
Lautaro Gordillo Colegiales Active 116 / 111 40% 1 17.10.2026 -
Tiago Palacios Estudiantes Active 134 / 122 40% 1 12.10.2026 -
Ignacio Russo Tigre Active 129 / 135 40% 1 07.10.2026 -
Mateo Mendoza Godoy Cruz Active 110 / 123 40% 1 12.09.2026 -
Mateo Acuña Vélez Active 96 / 112 40% 1 12.09.2026 -
Galo Galarza Estudiantes Active 99 / 113 40% 1 11.09.2026 -
Pedro de la Vega Leganés Negotiating 133 / 134 66% 1 24.08.2026 -
Toni Fruk Valladolid Negotiating 132 / 133 66% 1 24.08.2026 -
Lucio Cruceño Godoy Cruz Active 99 / 105 40% 1 21.08.2026 -
Alfon Sevilla Active 132 / 125 44% 1 17.08.2026 -
Facundo Montiel Colegiales Active 95 / 103 40% 1 01.08.2026 -